createdAt,value
2023-05-11T00:00:17.939Z,9.30
2023-05-11T00:01:50.174Z,7.30
2023-05-11T00:03:23.381Z,7.63
2023-05-11T00:04:56.633Z,7.73
2023-05-11T00:06:29.740Z,8.07
2023-05-11T00:08:02.837Z,8.10
2023-05-11T00:09:38.363Z,8.90
2023-05-11T00:11:10.833Z,8.33
2023-05-11T00:12:43.880Z,9.40
2023-05-11T00:14:16.939Z,8.70
2023-05-11T00:15:51.443Z,10.77
2023-05-11T00:17:24.538Z,10.27
2023-05-11T00:18:57.741Z,10.30
2023-05-11T00:20:30.852Z,8.93
2023-05-11T00:22:03.955Z,8.67
2023-05-11T00:23:36.078Z,8.50
2023-05-11T00:25:09.834Z,8.53
2023-05-11T00:26:42.893Z,8.90
2023-05-11T00:28:15.023Z,8.30
2023-05-11T00:29:48.275Z,10.10
2023-05-11T00:31:22.779Z,10.27
2023-05-11T00:32:55.935Z,10.13
2023-05-11T00:34:28.232Z,11.53
2023-05-11T00:36:01.813Z,11.43
2023-05-11T00:37:33.962Z,11.53
2023-05-11T00:39:07.205Z,11.67
2023-05-11T00:40:40.412Z,9.93
2023-05-11T00:42:13.512Z,11.00
2023-05-11T00:43:46.573Z,10.27
2023-05-11T00:45:19.745Z,12.73
2023-05-11T00:46:54.658Z,10.20
2023-05-11T00:48:27.856Z,8.60
2023-05-11T00:49:59.961Z,9.00
2023-05-11T00:51:33.795Z,9.93
2023-05-11T00:53:06.911Z,10.57
2023-05-11T00:54:41.560Z,8.80
2023-05-11T00:56:13.799Z,9.10
2023-05-11T00:57:47.016Z,11.83
2023-05-11T00:59:20.312Z,9.37
2023-05-11T01:00:53.416Z,9.37
2023-05-11T01:02:28.223Z,11.03
2023-05-11T01:04:01.371Z,9.70
2023-05-11T01:05:42.890Z,9.77
2023-05-11T01:07:23.088Z,9.53
2023-05-11T01:09:03.713Z,9.47
2023-05-11T01:10:45.977Z,9.27
2023-05-11T01:12:30.688Z,10.07
2023-05-11T01:14:08.238Z,11.50
2023-05-11T01:15:47.421Z,9.10
2023-05-11T01:17:27.935Z,11.00
2023-05-11T01:19:09.822Z,11.10
2023-05-11T01:20:46.839Z,10.47
2023-05-11T01:22:32.512Z,10.37
2023-05-11T01:24:23.857Z,11.47
2023-05-11T01:26:11.512Z,9.47
2023-05-11T01:27:58.159Z,11.30
2023-05-11T01:29:51.424Z,11.83
2023-05-11T01:31:31.060Z,9.87
2023-05-11T01:33:10.974Z,10.73
2023-05-11T01:34:45.876Z,10.90
2023-05-11T01:36:21.899Z,11.97
2023-05-11T01:37:59.013Z,12.00
2023-05-11T01:39:34.253Z,12.50
2023-05-11T01:41:12.938Z,13.50
2023-05-11T01:42:49.556Z,12.67
2023-05-11T01:44:26.768Z,12.07
2023-05-11T01:46:02.857Z,12.40
2023-05-11T01:47:38.547Z,12.17
2023-05-11T01:49:13.748Z,12.20
2023-05-11T01:50:47.966Z,10.70
2023-05-11T01:52:24.302Z,11.50
2023-05-11T01:53:59.196Z,12.47
2023-05-11T01:55:35.101Z,10.53
2023-05-11T01:57:07.865Z,12.70
2023-05-11T01:58:42.676Z,10.97
2023-05-11T02:00:16.681Z,11.70
2023-05-11T02:01:50.738Z,11.03
2023-05-11T02:03:27.437Z,11.00
2023-05-11T02:05:02.900Z,10.27
2023-05-11T02:06:39.021Z,10.10
2023-05-11T02:08:14.306Z,10.33
2023-05-11T02:09:48.377Z,11.67
2023-05-11T02:11:23.908Z,11.47
2023-05-11T02:12:57.647Z,11.90
2023-05-11T02:14:34.949Z,13.20
2023-05-11T02:16:09.354Z,10.80
2023-05-11T02:17:43.658Z,11.27
2023-05-11T02:19:18.962Z,9.97
2023-05-11T02:20:52.243Z,10.90
2023-05-11T02:22:26.499Z,10.90
2023-05-11T02:24:00.165Z,11.50
2023-05-11T02:25:33.258Z,11.60
2023-05-11T02:27:06.417Z,11.27
2023-05-11T02:28:39.567Z,11.87
2023-05-11T02:30:12.965Z,11.43
2023-05-11T02:31:50.285Z,10.93
2023-05-11T02:33:31.812Z,11.77
2023-05-11T02:35:11.521Z,14.10
2023-05-11T02:36:45.160Z,13.20
2023-05-11T02:38:19.708Z,10.33
2023-05-11T02:39:58.019Z,10.93
2023-05-11T02:41:32.813Z,11.47
2023-05-11T02:43:09.167Z,12.67
2023-05-11T02:44:52.187Z,10.67
2023-05-11T02:46:28.175Z,10.80
2023-05-11T02:48:05.965Z,10.63
2023-05-11T02:49:39.970Z,11.33
2023-05-11T02:51:19.855Z,11.37
2023-05-11T02:52:58.889Z,10.20
2023-05-11T02:54:33.130Z,9.90
2023-05-11T02:56:06.959Z,10.33
2023-05-11T02:57:41.444Z,10.30
2023-05-11T02:59:16.716Z,9.90
2023-05-11T03:00:50.041Z,11.63
2023-05-11T03:02:23.626Z,10.27
2023-05-11T03:03:57.333Z,10.47
2023-05-11T03:05:32.168Z,10.03
2023-05-11T03:07:06.920Z,11.87
2023-05-11T03:08:40.375Z,9.87
2023-05-11T03:10:13.624Z,10.70
2023-05-11T03:11:49.863Z,9.77
2023-05-11T03:13:24.183Z,9.43
2023-05-11T03:15:00.030Z,10.90
2023-05-11T03:16:33.979Z,9.33
2023-05-11T03:18:08.762Z,9.43
2023-05-11T03:19:43.245Z,9.50
2023-05-11T03:21:18.122Z,9.43
2023-05-11T03:22:53.443Z,9.47
2023-05-11T03:24:27.446Z,9.93
2023-05-11T03:26:01.246Z,9.40
2023-05-11T03:27:35.836Z,9.80
2023-05-11T03:29:10.019Z,9.90
2023-05-11T03:30:45.932Z,10.57
2023-05-11T03:32:19.296Z,10.50
2023-05-11T03:33:52.958Z,9.63
2023-05-11T03:35:29.286Z,10.03
2023-05-11T03:37:03.527Z,8.70
2023-05-11T03:38:39.967Z,8.57
2023-05-11T03:40:17.841Z,8.80
2023-05-11T03:41:56.676Z,9.00
2023-05-11T03:43:32.012Z,8.83
2023-05-11T03:45:08.838Z,10.07
2023-05-11T03:46:41.868Z,10.27
2023-05-11T03:48:17.871Z,11.27
2023-05-11T03:49:52.149Z,8.70
2023-05-11T03:51:25.299Z,8.47
2023-05-11T03:52:59.178Z,8.23
2023-05-11T03:54:34.151Z,8.43
2023-05-11T03:56:08.263Z,9.30
2023-05-11T03:57:41.577Z,9.20
2023-05-11T03:59:16.275Z,9.67
2023-05-11T04:00:49.808Z,8.80
2023-05-11T04:02:24.611Z,8.13
2023-05-11T04:03:58.089Z,8.27
2023-05-11T04:05:31.252Z,8.23
2023-05-11T04:07:07.487Z,8.10
2023-05-11T04:08:39.569Z,7.73
2023-05-11T04:10:14.365Z,7.77
2023-05-11T04:11:47.444Z,7.70
2023-05-11T04:13:20.572Z,10.83
2023-05-11T04:14:53.680Z,8.70
2023-05-11T04:16:27.115Z,9.70
2023-05-11T04:18:01.171Z,9.03
2023-05-11T04:19:34.354Z,7.50
2023-05-11T04:21:07.893Z,7.70
2023-05-11T04:22:41.091Z,7.57
2023-05-11T04:24:14.303Z,8.40
2023-05-11T04:25:48.713Z,9.33
2023-05-11T04:27:21.861Z,8.00
2023-05-11T04:28:54.070Z,6.97
2023-05-11T04:30:27.184Z,8.00
2023-05-11T04:31:59.589Z,8.13
2023-05-11T04:33:34.444Z,7.63
2023-05-11T04:35:07.790Z,7.57
2023-05-11T04:36:43.388Z,7.10
2023-05-11T04:38:16.742Z,7.80
2023-05-11T04:39:49.935Z,8.53
2023-05-11T04:41:24.723Z,6.83
2023-05-11T04:42:57.502Z,6.53
2023-05-11T04:44:30.627Z,8.43
2023-05-11T04:46:03.770Z,8.93
2023-05-11T04:47:36.959Z,14.33
2023-05-11T04:49:11.103Z,11.63
2023-05-11T04:50:46.000Z,7.30
2023-05-11T04:52:19.867Z,6.60
2023-05-11T04:53:54.303Z,8.90
2023-05-11T04:55:27.473Z,6.93
2023-05-11T04:57:02.021Z,5.17
2023-05-11T04:58:36.447Z,6.80
2023-05-11T05:00:12.178Z,6.97
2023-05-11T05:01:45.353Z,5.87
2023-05-11T05:03:18.506Z,6.23
2023-05-11T05:04:50.644Z,6.50
2023-05-11T05:06:23.785Z,5.90
2023-05-11T05:07:57.068Z,7.43
2023-05-11T05:09:30.164Z,6.03
2023-05-11T05:11:03.463Z,5.50
2023-05-11T05:12:38.003Z,5.77
2023-05-11T05:14:11.142Z,5.90
2023-05-11T05:15:44.312Z,5.97
2023-05-11T05:17:18.091Z,5.57
2023-05-11T05:18:51.490Z,5.70
2023-05-11T05:20:24.646Z,6.87
2023-05-11T05:21:57.773Z,8.97
2023-05-11T05:23:31.321Z,5.43
2023-05-11T05:25:04.546Z,7.13
2023-05-11T05:26:38.663Z,6.23
2023-05-11T05:28:13.266Z,8.00
2023-05-11T05:29:46.350Z,8.03
2023-05-11T05:31:19.826Z,6.63
2023-05-11T05:32:53.468Z,7.03
2023-05-11T05:34:26.851Z,6.27
2023-05-11T05:36:00.277Z,6.70
2023-05-11T05:37:33.417Z,7.37
2023-05-11T05:39:09.852Z,6.47
2023-05-11T05:40:43.228Z,5.30
2023-05-11T05:42:16.419Z,5.33
2023-05-11T05:43:51.554Z,6.13
2023-05-11T05:45:24.663Z,7.27
2023-05-11T05:46:58.071Z,5.50
2023-05-11T05:48:34.814Z,5.23
2023-05-11T05:50:08.666Z,4.20
2023-05-11T05:51:41.841Z,4.47
2023-05-11T05:53:14.967Z,3.57
2023-05-11T05:54:48.163Z,3.90
2023-05-11T05:56:21.728Z,3.83
2023-05-11T05:57:54.844Z,5.30
2023-05-11T05:59:30.056Z,3.93
2023-05-11T06:01:05.035Z,4.27
2023-05-11T06:02:38.141Z,7.33
2023-05-11T06:04:11.585Z,4.47
2023-05-11T06:05:44.740Z,4.47
2023-05-11T06:07:18.597Z,4.17
2023-05-11T06:08:51.713Z,3.60
2023-05-11T06:10:24.819Z,4.27
2023-05-11T06:11:58.353Z,5.43
2023-05-11T06:13:31.583Z,4.13
2023-05-11T06:15:08.892Z,7.43
2023-05-11T06:16:44.822Z,3.43
2023-05-11T06:18:18.091Z,4.20
2023-05-11T06:19:51.385Z,6.30
2023-05-11T06:21:28.616Z,4.43
2023-05-11T06:23:01.679Z,4.33
2023-05-11T06:24:34.905Z,5.70
2023-05-11T06:26:08.107Z,6.93
2023-05-11T06:27:41.476Z,7.37
2023-05-11T06:29:14.510Z,4.00
2023-05-11T06:30:49.036Z,5.40
2023-05-11T06:32:22.370Z,5.33
2023-05-11T06:33:55.676Z,4.37
2023-05-11T06:35:31.824Z,4.73
2023-05-11T06:37:05.018Z,3.90
2023-05-11T06:38:38.039Z,3.37
2023-05-11T06:40:11.587Z,3.53
2023-05-11T06:41:44.747Z,6.20
2023-05-11T06:43:17.829Z,5.27
2023-05-11T06:44:53.242Z,4.87
2023-05-11T06:46:30.198Z,6.03
2023-05-11T06:48:03.442Z,5.03
2023-05-11T06:49:36.916Z,4.37
2023-05-11T06:51:11.565Z,3.20
2023-05-11T06:52:44.657Z,7.00
2023-05-11T06:54:17.709Z,3.73
2023-05-11T06:55:50.966Z,4.50
2023-05-11T06:57:24.028Z,3.53
2023-05-11T06:58:57.153Z,4.00
2023-05-11T07:00:30.205Z,4.80
2023-05-11T07:02:04.648Z,6.60
2023-05-11T07:03:37.751Z,4.77
2023-05-11T07:05:12.171Z,4.37
2023-05-11T07:06:45.346Z,4.80
2023-05-11T07:08:18.395Z,5.83
2023-05-11T07:09:51.674Z,3.87
2023-05-11T07:11:25.485Z,3.30
2023-05-11T07:12:58.669Z,7.23
2023-05-11T07:14:31.689Z,4.07
2023-05-11T07:16:04.881Z,3.00
2023-05-11T07:17:39.396Z,3.50
2023-05-11T07:19:12.572Z,3.97
2023-05-11T07:20:49.950Z,3.23
2023-05-11T07:22:23.029Z,5.90
2023-05-11T07:23:56.175Z,4.97
2023-05-11T07:25:29.653Z,4.23
2023-05-11T07:27:03.010Z,4.23
2023-05-11T07:28:40.823Z,6.70
2023-05-11T07:30:15.015Z,4.83
2023-05-11T07:31:49.278Z,3.80
2023-05-11T07:33:24.096Z,5.10
2023-05-11T07:34:57.577Z,3.17
2023-05-11T07:36:31.037Z,4.70
2023-05-11T07:38:05.223Z,3.43
2023-05-11T07:39:38.755Z,2.97
2023-05-11T07:41:12.764Z,3.60
2023-05-11T07:42:46.561Z,3.87
2023-05-11T07:44:19.986Z,4.60
2023-05-11T07:45:53.347Z,3.90
2023-05-11T07:47:27.089Z,3.90
2023-05-11T07:49:14.471Z,2.93
2023-05-11T07:50:52.135Z,2.80
2023-05-11T07:52:25.474Z,3.40
2023-05-11T07:53:59.461Z,4.77
2023-05-11T07:55:33.281Z,4.97
2023-05-11T07:57:06.756Z,4.57
2023-05-11T07:58:40.107Z,6.17
2023-05-11T08:00:14.158Z,5.20
2023-05-11T08:01:47.603Z,3.67
2023-05-11T08:03:21.495Z,5.33
2023-05-11T08:04:56.286Z,6.00
2023-05-11T08:06:30.417Z,3.20
2023-05-11T08:08:03.758Z,3.67
2023-05-11T08:09:37.422Z,6.60
2023-05-11T08:11:10.932Z,4.23
2023-05-11T08:12:44.518Z,5.70
2023-05-11T08:14:18.114Z,4.43
2023-05-11T08:15:51.555Z,3.40
2023-05-11T08:17:25.128Z,4.43
2023-05-11T08:18:58.679Z,2.97
2023-05-11T08:20:33.662Z,3.70
2023-05-11T08:22:07.516Z,3.13
2023-05-11T08:23:42.017Z,4.03
2023-05-11T08:25:17.066Z,4.57
2023-05-11T08:26:50.974Z,6.37
2023-05-11T08:28:25.061Z,3.50
2023-05-11T08:29:58.424Z,2.97
2023-05-11T08:31:32.040Z,5.60
2023-05-11T08:33:17.584Z,3.43
2023-05-11T08:34:59.273Z,3.73
2023-05-11T08:36:34.612Z,4.00
2023-05-11T08:38:08.086Z,3.00
2023-05-11T08:39:47.331Z,3.17
2023-05-11T08:41:21.620Z,5.37
2023-05-11T08:42:55.948Z,4.90
2023-05-11T08:44:29.395Z,3.37
2023-05-11T08:46:04.896Z,4.87
2023-05-11T08:47:38.849Z,5.17
2023-05-11T08:49:13.413Z,4.90
2023-05-11T08:50:46.989Z,6.00
2023-05-11T08:52:21.904Z,3.43
2023-05-11T08:53:57.683Z,3.90
2023-05-11T08:55:31.639Z,3.70
2023-05-11T08:57:06.969Z,3.33
2023-05-11T08:58:40.444Z,3.83
2023-05-11T09:00:14.507Z,3.00
2023-05-11T09:01:49.053Z,7.03
2023-05-11T09:03:22.662Z,4.57
2023-05-11T09:04:56.203Z,4.03
2023-05-11T09:06:29.839Z,4.40
2023-05-11T09:08:06.242Z,7.30
2023-05-11T09:09:41.414Z,7.37
2023-05-11T09:11:14.954Z,2.70
2023-05-11T09:12:48.410Z,3.67
2023-05-11T09:14:27.015Z,3.80
2023-05-11T09:16:00.834Z,4.20
2023-05-11T09:17:34.218Z,4.27
2023-05-11T09:19:07.804Z,3.27
2023-05-11T09:20:44.548Z,4.00
2023-05-11T09:22:18.096Z,3.33
2023-05-11T09:23:53.107Z,3.40
2023-05-11T09:25:27.278Z,4.17
2023-05-11T09:27:10.013Z,4.20
2023-05-11T09:29:02.485Z,3.30
2023-05-11T09:30:37.000Z,3.53
2023-05-11T09:32:10.605Z,4.80
2023-05-11T09:33:44.054Z,5.47
2023-05-11T09:35:21.256Z,2.93
2023-05-11T09:36:56.125Z,5.17
2023-05-11T09:38:29.536Z,7.40
2023-05-11T09:41:41.297Z,4.03
2023-05-11T09:43:18.818Z,3.97
2023-05-11T09:44:52.865Z,3.67
2023-05-11T09:46:26.359Z,3.73
2023-05-11T09:47:59.843Z,2.97
2023-05-11T09:49:34.729Z,4.70
2023-05-11T09:51:08.788Z,3.77
2023-05-11T09:52:47.275Z,4.10
2023-05-11T09:54:21.240Z,3.30
2023-05-11T09:55:56.741Z,2.83
2023-05-11T09:57:31.048Z,4.90
2023-05-11T09:59:05.371Z,4.63
2023-05-11T10:00:50.888Z,5.03
2023-05-11T10:02:25.321Z,4.53
2023-05-11T10:04:13.281Z,5.93
2023-05-11T10:05:58.076Z,6.03
2023-05-11T10:07:32.241Z,2.13
2023-05-11T10:09:10.654Z,7.80
2023-05-11T10:10:44.108Z,2.77
2023-05-11T10:12:19.392Z,5.13
2023-05-11T10:13:53.555Z,2.17
2023-05-11T10:15:28.225Z,2.20
2023-05-11T10:17:02.927Z,4.50
2023-05-11T10:18:36.444Z,2.40
2023-05-11T10:20:10.736Z,3.53
2023-05-11T10:21:44.435Z,4.60
2023-05-11T10:23:18.432Z,3.77
2023-05-11T10:24:52.620Z,2.43
2023-05-11T10:26:30.412Z,2.90
2023-05-11T10:28:05.205Z,2.93
2023-05-11T10:29:39.159Z,3.53
2023-05-11T10:31:13.057Z,3.43
2023-05-11T10:32:47.212Z,2.17
2023-05-11T10:34:23.253Z,3.17
2023-05-11T10:35:57.127Z,2.90
2023-05-11T10:37:30.855Z,4.73
2023-05-11T10:39:04.759Z,2.87
2023-05-11T10:40:38.606Z,2.97
2023-05-11T10:42:21.806Z,4.87
2023-05-11T10:44:11.971Z,2.67
2023-05-11T10:45:51.624Z,3.97
2023-05-11T10:47:41.159Z,2.57
2023-05-11T10:49:30.587Z,5.93
2023-05-11T10:51:14.020Z,4.33
2023-05-11T10:52:57.904Z,5.23
2023-05-11T10:54:35.462Z,3.40
2023-05-11T10:56:21.275Z,2.20
2023-05-11T10:58:02.361Z,3.30
2023-05-11T10:59:44.684Z,7.97
2023-05-11T11:01:27.632Z,4.20
2023-05-11T11:03:10.347Z,2.77
2023-05-11T11:04:44.995Z,3.93
2023-05-11T11:06:25.804Z,2.50
2023-05-11T11:08:00.103Z,3.93
2023-05-11T11:09:51.451Z,3.43
2023-05-11T11:11:39.064Z,2.60
2023-05-11T11:13:14.007Z,4.20
2023-05-11T11:15:07.701Z,4.77
2023-05-11T11:16:41.696Z,2.30
2023-05-11T11:18:21.239Z,2.90
2023-05-11T11:19:54.510Z,3.93
2023-05-11T11:21:41.389Z,4.70
2023-05-11T11:23:30.030Z,3.57
2023-05-11T11:25:05.117Z,2.60
2023-05-11T11:26:50.314Z,3.60
2023-05-11T11:28:23.658Z,5.70
2023-05-11T11:30:20.425Z,4.03
2023-05-11T11:31:53.568Z,3.33
2023-05-11T11:33:34.118Z,2.57
2023-05-11T11:35:21.757Z,6.00
2023-05-11T11:37:08.801Z,4.07
2023-05-11T11:38:58.070Z,3.77
2023-05-11T11:40:49.547Z,5.10
2023-05-11T11:42:42.756Z,4.17
2023-05-11T11:44:23.567Z,3.43
2023-05-11T11:46:00.664Z,5.60
2023-05-11T11:47:35.391Z,3.17
2023-05-11T11:49:10.485Z,3.97
2023-05-11T11:50:48.969Z,2.93
2023-05-11T11:52:36.659Z,3.97
2023-05-11T11:54:11.281Z,4.33
2023-05-11T11:55:50.040Z,3.67
2023-05-11T11:57:51.159Z,3.27
2023-05-11T11:59:24.977Z,4.47
2023-05-11T12:00:59.833Z,4.43
2023-05-11T12:02:33.514Z,3.37
2023-05-11T12:04:25.992Z,4.80
2023-05-11T12:06:02.730Z,3.57
2023-05-11T12:07:37.116Z,3.70
2023-05-11T12:09:11.670Z,3.37
2023-05-11T12:10:48.280Z,4.10
2023-05-11T12:12:23.687Z,3.73
2023-05-11T12:13:58.362Z,3.10
2023-05-11T12:15:33.092Z,2.80
2023-05-11T12:17:15.928Z,5.60
2023-05-11T12:18:54.213Z,4.47
2023-05-11T12:20:27.733Z,5.03
2023-05-11T12:22:01.469Z,3.63
2023-05-11T12:23:35.304Z,5.60
2023-05-11T12:25:11.410Z,4.93
2023-05-11T12:26:45.430Z,4.30
2023-05-11T12:28:21.310Z,3.33
2023-05-11T12:29:54.485Z,5.33
2023-05-11T12:31:27.792Z,2.87
2023-05-11T12:33:04.597Z,3.23
2023-05-11T12:34:37.776Z,4.37
2023-05-11T12:36:14.975Z,4.57
2023-05-11T12:37:49.100Z,2.67
2023-05-11T12:39:23.408Z,5.23
2023-05-11T12:40:56.556Z,5.47
2023-05-11T12:42:29.777Z,6.23
2023-05-11T12:44:03.161Z,3.77
2023-05-11T12:45:36.674Z,4.23
2023-05-11T12:47:12.254Z,5.27
2023-05-11T12:48:47.393Z,5.83
2023-05-11T12:50:21.649Z,3.90
2023-05-11T12:52:03.223Z,4.50
2023-05-11T12:53:37.256Z,3.00
2023-05-11T12:55:11.621Z,2.93
2023-05-11T12:56:46.928Z,2.43
2023-05-11T12:58:20.075Z,2.40
2023-05-11T13:00:08.304Z,4.67
2023-05-11T13:01:42.875Z,3.10
2023-05-11T13:03:22.791Z,2.33
2023-05-11T13:04:57.453Z,2.57
2023-05-11T13:06:30.698Z,3.80
2023-05-11T13:08:05.766Z,2.67
2023-05-11T13:09:39.568Z,4.67
2023-05-11T13:11:19.241Z,2.87
2023-05-11T13:12:53.169Z,5.60
2023-05-11T13:14:26.248Z,2.67
2023-05-11T13:15:59.788Z,3.23
2023-05-11T13:17:33.966Z,3.87
2023-05-11T13:19:09.200Z,3.63
2023-05-11T13:20:44.971Z,4.03
2023-05-11T13:22:18.130Z,4.13
2023-05-11T13:23:52.014Z,3.67
2023-05-11T13:25:25.216Z,4.53
2023-05-11T13:26:59.659Z,4.03
2023-05-11T13:28:35.186Z,4.33
2023-05-11T13:30:09.376Z,2.00
2023-05-11T13:31:46.119Z,4.60
2023-05-11T13:33:19.693Z,2.27
2023-05-11T13:34:52.813Z,5.30
2023-05-11T13:36:27.428Z,4.17
2023-05-11T13:38:00.526Z,3.50
2023-05-11T13:39:33.613Z,2.90
2023-05-11T13:41:07.270Z,5.30
2023-05-11T13:42:41.633Z,2.60
2023-05-11T13:44:14.883Z,3.17
2023-05-11T13:45:48.012Z,5.33
2023-05-11T13:47:21.132Z,3.40
2023-05-11T13:48:55.061Z,3.87
2023-05-11T13:50:28.353Z,3.50
2023-05-11T13:52:02.907Z,3.80
2023-05-11T13:53:35.985Z,3.87
2023-05-11T13:55:09.919Z,2.23
2023-05-11T13:56:42.995Z,2.20
2023-05-11T13:58:16.222Z,3.17
2023-05-11T13:59:49.281Z,3.30
2023-05-11T14:01:22.513Z,3.23
2023-05-11T14:02:58.091Z,3.93
2023-05-11T14:04:31.313Z,2.70
2023-05-11T14:06:04.787Z,2.20
2023-05-11T14:07:47.833Z,3.20
2023-05-11T14:09:23.143Z,4.33
2023-05-11T14:10:56.299Z,2.17
2023-05-11T14:12:29.375Z,4.17
2023-05-11T14:14:02.790Z,3.97
2023-05-11T14:15:36.962Z,3.97
2023-05-11T14:17:13.418Z,2.87
2023-05-11T14:18:46.879Z,4.03
2023-05-11T14:20:20.180Z,4.00
2023-05-11T14:21:53.356Z,4.97
2023-05-11T14:23:26.845Z,3.33
2023-05-11T14:25:00.018Z,3.73
2023-05-11T14:26:33.674Z,2.00
2023-05-11T14:28:06.871Z,4.20
2023-05-11T14:29:41.786Z,2.73
2023-05-11T14:31:17.121Z,5.33
2023-05-11T14:32:50.698Z,3.77
2023-05-11T14:34:23.763Z,3.63
2023-05-11T14:35:57.105Z,3.90
2023-05-11T14:37:30.250Z,3.10
2023-05-11T14:39:05.130Z,3.33
2023-05-11T14:40:37.177Z,2.20
2023-05-11T14:42:10.947Z,4.73
2023-05-11T14:43:44.713Z,2.57
2023-05-11T14:45:18.214Z,2.70
2023-05-11T14:46:51.843Z,2.17
2023-05-11T14:48:25.027Z,2.47
2023-05-11T14:49:58.342Z,3.97
2023-05-11T14:51:31.795Z,2.37
2023-05-11T14:53:04.979Z,2.93
2023-05-11T14:54:39.467Z,4.37
2023-05-11T14:56:12.601Z,6.97
2023-05-11T14:57:45.646Z,4.23
2023-05-11T14:59:18.739Z,4.50
2023-05-11T15:00:51.817Z,6.93
2023-05-11T15:02:26.060Z,4.33
2023-05-11T15:03:59.576Z,2.70
2023-05-11T15:05:32.690Z,2.57
2023-05-11T15:07:05.867Z,5.50
2023-05-11T15:08:38.942Z,4.47
2023-05-11T15:10:13.499Z,3.00
2023-05-11T15:11:46.566Z,3.37
2023-05-11T15:13:22.114Z,2.60
2023-05-11T15:14:55.547Z,4.03
2023-05-11T15:16:28.682Z,3.40
2023-05-11T15:18:01.930Z,3.97
2023-05-11T15:19:35.172Z,2.30
2023-05-11T15:21:08.271Z,2.57
2023-05-11T15:22:41.349Z,4.53
2023-05-11T15:24:14.396Z,3.63
2023-05-11T15:25:49.155Z,3.03
2023-05-11T15:27:22.299Z,3.13
2023-05-11T15:28:55.377Z,3.10
2023-05-11T15:30:30.907Z,2.23
2023-05-11T15:32:06.195Z,3.40
2023-05-11T15:33:39.449Z,6.90
2023-05-11T15:35:13.534Z,3.23
2023-05-11T15:36:48.537Z,2.43
2023-05-11T15:38:21.716Z,4.80
2023-05-11T15:39:54.941Z,5.07
2023-05-11T15:41:29.445Z,1.90
2023-05-11T15:43:02.564Z,5.37
2023-05-11T15:44:35.902Z,5.30
2023-05-11T15:46:09.013Z,4.30
2023-05-11T15:47:42.249Z,2.90
2023-05-11T15:49:15.830Z,2.67
2023-05-11T15:50:49.254Z,3.13
2023-05-11T15:52:22.297Z,2.43
2023-05-11T15:53:55.673Z,3.83
2023-05-11T15:55:28.865Z,3.07
2023-05-11T15:57:03.289Z,4.37
2023-05-11T15:58:36.367Z,3.23
2023-05-11T16:00:11.026Z,5.47
2023-05-11T16:01:44.133Z,2.20
2023-05-11T16:03:17.467Z,2.83
2023-05-11T16:04:50.680Z,2.17
2023-05-11T16:06:23.754Z,3.63
2023-05-11T16:07:56.780Z,3.93
2023-05-11T16:09:29.975Z,12.97
2023-05-11T16:11:03.371Z,2.97
2023-05-11T16:12:37.854Z,3.33
2023-05-11T16:14:11.037Z,2.60
2023-05-11T16:15:44.180Z,3.07
2023-05-11T16:17:17.393Z,3.07
2023-05-11T16:18:50.577Z,4.07
2023-05-11T16:20:23.725Z,2.20
2023-05-11T16:21:56.943Z,2.20
2023-05-11T16:23:30.068Z,3.10
2023-05-11T16:25:03.298Z,3.73
2023-05-11T16:26:36.592Z,3.30
2023-05-11T16:28:11.013Z,2.83
2023-05-11T16:29:44.085Z,3.20
2023-05-11T16:31:17.225Z,3.60
2023-05-11T16:32:52.594Z,3.00
2023-05-11T16:34:26.970Z,3.10
2023-05-11T16:36:00.296Z,3.43
2023-05-11T16:37:33.423Z,5.77
2023-05-11T16:39:06.571Z,5.80
2023-05-11T16:40:39.700Z,2.83
2023-05-11T16:42:13.395Z,4.20
2023-05-11T16:43:47.895Z,2.30
2023-05-11T16:45:21.000Z,1.87
2023-05-11T16:46:54.295Z,3.03
2023-05-11T16:48:27.986Z,5.37
2023-05-11T16:50:01.104Z,4.33
2023-05-11T16:51:34.272Z,3.20
2023-05-11T16:53:07.405Z,3.57
2023-05-11T16:54:40.533Z,4.43
2023-05-11T16:56:14.624Z,3.90
2023-05-11T16:57:48.435Z,3.37
2023-05-11T16:59:22.894Z,2.40
2023-05-11T17:00:56.037Z,3.33
2023-05-11T17:02:29.152Z,2.10
2023-05-11T17:04:02.254Z,3.30
2023-05-11T17:05:35.376Z,3.13
2023-05-11T17:07:10.843Z,4.50
2023-05-11T17:08:43.951Z,3.10
2023-05-11T17:10:17.373Z,5.40
2023-05-11T17:11:50.703Z,3.97
2023-05-11T17:13:23.736Z,5.87
2023-05-11T17:14:58.428Z,3.87
2023-05-11T17:16:31.558Z,3.60
2023-05-11T17:18:05.038Z,3.63
2023-05-11T17:19:38.330Z,2.53
2023-05-11T17:21:11.521Z,3.60
2023-05-11T17:22:45.249Z,2.40
2023-05-11T17:24:18.468Z,3.13
2023-05-11T17:25:51.946Z,4.53
2023-05-11T17:27:25.032Z,2.70
2023-05-11T17:28:58.120Z,4.27
2023-05-11T17:30:47.303Z,2.40
2023-05-11T17:32:22.272Z,2.37
2023-05-11T17:33:55.666Z,2.40
2023-05-11T17:35:28.880Z,3.23
2023-05-11T17:37:01.980Z,4.83
2023-05-11T17:38:35.149Z,2.67
2023-05-11T17:40:09.359Z,3.67
2023-05-11T17:41:42.492Z,4.87
2023-05-11T17:43:15.594Z,3.23
2023-05-11T17:44:48.657Z,4.23
2023-05-11T17:46:23.167Z,4.33
2023-05-11T17:47:56.484Z,5.97
2023-05-11T17:49:29.603Z,2.83
2023-05-11T17:51:02.718Z,3.10
2023-05-11T17:52:35.851Z,3.10
2023-05-11T17:54:08.934Z,2.40
2023-05-11T17:55:42.665Z,3.10
2023-05-11T17:57:15.929Z,4.50
2023-05-11T17:58:49.386Z,2.57
2023-05-11T18:00:22.913Z,3.63
2023-05-11T18:01:58.762Z,4.33
2023-05-11T18:03:31.976Z,2.93
2023-05-11T18:05:05.691Z,2.53
2023-05-11T18:06:38.897Z,4.57
2023-05-11T18:08:12.571Z,4.20
2023-05-11T18:09:45.723Z,5.43
2023-05-11T18:11:18.879Z,3.60
2023-05-11T18:12:51.952Z,4.27
2023-05-11T18:14:25.149Z,3.83
2023-05-11T18:15:58.689Z,3.80
2023-05-11T18:17:33.378Z,4.70
2023-05-11T18:19:06.969Z,3.93
2023-05-11T18:20:40.176Z,3.70
2023-05-11T18:22:13.247Z,3.70
2023-05-11T18:23:46.400Z,4.50
2023-05-11T18:25:19.600Z,4.50
2023-05-11T18:26:52.730Z,6.13
2023-05-11T18:28:25.905Z,4.13
2023-05-11T18:29:59.285Z,3.97
2023-05-11T18:31:32.451Z,4.70
2023-05-11T18:33:06.924Z,3.50
2023-05-11T18:34:42.437Z,6.57
2023-05-11T18:36:15.846Z,6.40
2023-05-11T18:37:49.003Z,2.97
2023-05-11T18:39:22.045Z,3.63
2023-05-11T18:40:56.312Z,3.50
2023-05-11T18:42:29.396Z,3.33
2023-05-11T18:44:02.962Z,5.13
2023-05-11T18:45:37.710Z,4.93
2023-05-11T18:47:12.832Z,3.20
2023-05-11T18:48:52.727Z,5.13
2023-05-11T18:50:25.273Z,3.47
2023-05-11T18:51:58.592Z,4.53
2023-05-11T18:53:32.179Z,3.20
2023-05-11T18:55:05.685Z,4.23
2023-05-11T18:56:39.028Z,4.70
2023-05-11T18:58:13.293Z,3.73
2023-05-11T18:59:46.973Z,4.07
2023-05-11T19:01:20.409Z,4.47
2023-05-11T19:02:54.628Z,3.30
2023-05-11T19:04:30.752Z,3.60
2023-05-11T19:06:04.166Z,3.93
2023-05-11T19:07:37.528Z,4.10
2023-05-11T19:09:10.947Z,4.37
2023-05-11T19:10:45.328Z,3.47
2023-05-11T19:12:19.715Z,4.03
2023-05-11T19:13:53.173Z,4.63
2023-05-11T19:15:26.563Z,4.80
2023-05-11T19:17:00.004Z,3.83
2023-05-11T19:18:35.519Z,3.97
2023-05-11T19:20:12.405Z,3.50
2023-05-11T19:21:46.243Z,4.33
2023-05-11T19:23:19.604Z,5.03
2023-05-11T19:24:52.995Z,3.80
2023-05-11T19:26:26.684Z,3.50
2023-05-11T19:28:00.103Z,4.47
2023-05-11T19:29:33.492Z,4.20
2023-05-11T19:31:07.669Z,3.37
2023-05-11T19:32:42.431Z,5.20
2023-05-11T19:34:17.687Z,3.97
2023-05-11T19:35:52.540Z,4.20
2023-05-11T19:37:25.986Z,5.63
2023-05-11T19:38:59.329Z,9.97
2023-05-11T19:42:12.144Z,4.43
2023-05-11T19:43:45.633Z,5.27
2023-05-11T19:45:18.982Z,3.83
2023-05-11T19:46:52.471Z,4.10
2023-05-11T19:48:25.875Z,4.87
2023-05-11T19:49:59.260Z,4.13
2023-05-11T19:51:34.028Z,5.50
2023-05-11T19:53:07.148Z,8.20
2023-05-11T19:54:40.256Z,4.77
2023-05-11T19:56:13.316Z,3.77
2023-05-11T19:57:46.428Z,6.00
2023-05-11T19:59:19.506Z,4.27
2023-05-11T20:00:52.623Z,4.27
2023-05-11T20:02:25.691Z,3.97
2023-05-11T20:03:58.894Z,4.30
2023-05-11T20:05:32.033Z,5.50
2023-05-11T20:07:06.605Z,3.80
2023-05-11T20:08:39.687Z,3.78
2023-05-11T20:10:12.998Z,4.70
2023-05-11T20:11:46.088Z,3.80
2023-05-11T20:13:19.178Z,5.00
2023-05-11T20:14:53.531Z,3.80
2023-05-11T20:16:26.604Z,4.97
2023-05-11T20:17:59.931Z,4.00
2023-05-11T20:19:33.130Z,5.33
2023-05-11T20:21:06.315Z,3.97
2023-05-11T20:22:40.800Z,4.07
2023-05-11T20:24:13.872Z,8.50
2023-05-11T20:25:46.953Z,4.63
2023-05-11T20:27:19.990Z,6.00
2023-05-11T20:28:53.027Z,4.30
2023-05-11T20:30:26.080Z,3.33
2023-05-11T20:31:59.276Z,5.50
2023-05-11T20:35:09.344Z,3.80
2023-05-11T20:36:42.544Z,3.90
2023-05-11T20:38:17.832Z,4.33
2023-05-11T20:39:50.896Z,4.00
2023-05-11T20:41:23.220Z,4.53
2023-05-11T20:42:56.305Z,4.50
2023-05-11T20:44:28.351Z,3.60
2023-05-11T20:46:03.394Z,4.13
2023-05-11T20:47:36.636Z,3.90
2023-05-11T20:49:10.375Z,5.40
2023-05-11T20:50:50.478Z,4.20
2023-05-11T20:52:25.599Z,6.07
2023-05-11T20:54:00.068Z,4.57
2023-05-11T20:55:33.161Z,4.27
2023-05-11T20:57:08.154Z,4.23
2023-05-11T20:58:41.481Z,4.20
2023-05-11T21:00:16.168Z,4.27
2023-05-11T21:01:49.341Z,5.23
2023-05-11T21:03:22.525Z,7.50